createdAt,value
2023-02-19T00:02:23.997Z,96591.06
2023-02-19T00:05:25.523Z,96584.88
2023-02-19T00:08:27.117Z,96588.53
2023-02-19T00:11:34.564Z,96578.84
2023-02-19T00:14:36.155Z,96577.84
2023-02-19T00:17:37.731Z,96575.34
2023-02-19T00:20:39.270Z,96569.28
2023-02-19T00:23:41.003Z,96568.59
2023-02-19T00:26:43.661Z,96557.25
2023-02-19T00:29:45.295Z,96563.88
2023-02-19T00:32:51.696Z,96553.31
2023-02-19T00:35:53.248Z,96553.50
2023-02-19T00:38:55.299Z,96545.63
2023-02-19T00:41:56.854Z,96558.16
2023-02-19T00:44:58.482Z,96548.59
2023-02-19T00:48:00.043Z,96558.31
2023-02-19T00:51:01.615Z,96552.25
2023-02-19T00:54:04.176Z,96554.78
2023-02-19T00:57:06.431Z,96554.78
2023-02-19T01:00:08.757Z,96547.63
2023-02-19T01:03:10.482Z,96545.22
2023-02-19T01:06:14.880Z,96549.44
2023-02-19T01:09:16.521Z,96552.94
2023-02-19T01:12:18.125Z,96546.78
2023-02-19T01:15:19.728Z,96551.13
2023-02-19T01:18:21.289Z,96532.72
2023-02-19T01:21:25.550Z,96532.41
2023-02-19T01:24:27.170Z,96530.88
2023-02-19T01:27:28.895Z,96531.88
2023-02-19T01:30:30.543Z,96532.56
2023-02-19T01:33:33.422Z,96520.03
2023-02-19T01:36:35.173Z,96522.72
2023-02-19T01:39:36.752Z,96525.41
2023-02-19T01:42:42.963Z,96523.72
2023-02-19T01:45:45.715Z,96522.19
2023-02-19T01:48:47.509Z,96510.50
2023-02-19T01:52:12.718Z,96506.84
2023-02-19T01:55:14.593Z,96519.22
2023-02-19T01:58:16.704Z,96511.19
2023-02-19T02:01:18.414Z,96510.81
2023-02-19T02:04:20.019Z,96507.69
2023-02-19T02:07:41.610Z,96508.38
2023-02-19T02:10:43.672Z,96501.19
2023-02-19T02:13:46.165Z,96495.84
2023-02-19T02:17:09.107Z,96489.81
2023-02-19T02:20:29.060Z,96487.00
2023-02-19T02:24:02.093Z,96473.78
2023-02-19T02:27:35.597Z,96472.25
2023-02-19T02:30:46.305Z,96476.94
2023-02-19T02:33:59.296Z,96467.22
2023-02-19T02:37:03.560Z,96465.41
2023-02-19T02:40:07.835Z,96464.00
2023-02-19T02:43:10.318Z,96457.56
2023-02-19T02:46:15.576Z,96452.41
2023-02-19T02:49:24.537Z,96454.69
2023-02-19T02:52:46.829Z,96444.31
2023-02-19T02:55:52.103Z,96447.13
2023-02-19T02:58:57.218Z,96430.56
2023-02-19T03:02:14.770Z,96409.44
2023-02-19T03:05:41.387Z,96430.13
2023-02-19T03:08:56.124Z,96440.03
2023-02-19T03:12:22.369Z,96435.97
2023-02-19T03:15:48.854Z,96439.53
2023-02-19T03:19:13.889Z,96437.47
2023-02-19T03:22:26.345Z,96430.94
2023-02-19T03:25:52.908Z,96418.88
2023-02-19T03:29:23.675Z,96424.00
2023-02-19T03:32:38.230Z,96411.22
2023-02-19T03:35:45.612Z,96432.03
2023-02-19T03:39:00.886Z,96414.94
2023-02-19T03:42:18.293Z,96427.72
2023-02-19T03:45:43.186Z,96432.41
2023-02-19T03:48:52.264Z,96416.69
2023-02-19T03:52:23.420Z,96418.13
2023-02-19T03:55:30.897Z,96414.03
2023-02-19T03:58:49.233Z,96415.34
2023-02-19T04:01:56.006Z,96419.31
2023-02-19T04:05:14.019Z,96408.09
2023-02-19T04:08:19.660Z,96411.72
2023-02-19T04:11:29.075Z,96426.22
2023-02-19T04:14:44.179Z,96422.97
2023-02-19T04:17:52.287Z,96418.94
2023-02-19T04:20:54.663Z,96426.25
2023-02-19T04:24:03.192Z,96435.50
2023-02-19T04:27:06.996Z,96431.47
2023-02-19T04:30:11.488Z,96437.63
2023-02-19T04:33:13.835Z,96439.59
2023-02-19T04:36:15.450Z,96447.44
2023-02-19T04:39:17.562Z,96449.28
2023-02-19T04:42:19.589Z,96442.56
2023-02-19T04:45:21.617Z,96452.38
2023-02-19T04:48:23.216Z,96459.53
2023-02-19T04:51:25.119Z,96457.72
2023-02-19T04:54:26.800Z,96454.06
2023-02-19T04:57:28.784Z,96450.69
2023-02-19T05:00:31.121Z,96459.53
2023-02-19T05:03:35.714Z,96473.84
2023-02-19T05:06:37.777Z,96467.53
2023-02-19T05:09:39.485Z,96457.13
2023-02-19T05:12:41.136Z,96471.31
2023-02-19T05:15:43.238Z,96462.47
2023-02-19T05:18:46.829Z,96458.69
2023-02-19T05:21:49.094Z,96465.84
2023-02-19T05:24:51.178Z,96472.16
2023-02-19T05:28:12.911Z,96465.97
2023-02-19T05:31:15.079Z,96472.00
2023-02-19T05:34:17.187Z,96479.88
2023-02-19T05:37:19.200Z,96473.53
2023-02-19T05:40:22.220Z,96475.66
2023-02-19T05:43:24.202Z,96484.34
2023-02-19T05:46:29.824Z,96482.69
2023-02-19T05:49:32.000Z,96489.13
2023-02-19T05:52:33.998Z,96491.50
2023-02-19T05:55:36.640Z,96480.84
2023-02-19T05:58:38.279Z,96483.38
2023-02-19T06:01:40.346Z,96483.38
2023-02-19T06:04:42.325Z,96483.94
2023-02-19T06:07:44.480Z,96500.34
2023-02-19T06:10:46.482Z,96506.78
2023-02-19T06:13:54.218Z,96510.44
2023-02-19T06:16:56.356Z,96524.75
2023-02-19T06:19:57.978Z,96524.06
2023-02-19T06:22:59.668Z,96530.50
2023-02-19T06:26:20.265Z,96533.31
2023-02-19T06:29:22.418Z,96534.44
2023-02-19T06:32:24.131Z,96539.47
2023-02-19T06:35:26.282Z,96530.78
2023-02-19T06:38:28.742Z,96553.25
2023-02-19T06:41:32.060Z,96546.22
2023-02-19T06:44:34.200Z,96558.69
2023-02-19T06:47:35.826Z,96565.00
2023-02-19T06:50:37.494Z,96573.56
2023-02-19T06:53:40.333Z,96573.84
2023-02-19T06:56:42.623Z,96575.25
2023-02-19T06:59:44.557Z,96574.53
2023-02-19T07:02:47.032Z,96582.09
2023-02-19T07:05:49.570Z,96595.69
2023-02-19T07:08:54.125Z,96597.06
2023-02-19T07:11:55.888Z,96609.53
2023-02-19T07:15:00.974Z,96611.78
2023-02-19T07:18:05.295Z,96628.47
2023-02-19T07:21:10.837Z,96629.69
2023-02-19T07:24:12.864Z,96637.00
2023-02-19T07:27:14.464Z,96640.91
2023-02-19T07:30:16.599Z,96640.63
2023-02-19T07:33:19.108Z,96645.97
2023-02-19T07:36:23.718Z,96651.53
2023-02-19T07:39:25.285Z,96648.50
2023-02-19T07:42:26.953Z,96649.72
2023-02-19T07:45:29.074Z,96657.16
2023-02-19T07:48:31.828Z,96664.47
2023-02-19T07:51:34.065Z,96678.75
2023-02-19T07:54:36.224Z,96673.56
2023-02-19T07:57:38.302Z,96679.44
2023-02-19T08:00:40.364Z,96678.47
2023-02-19T08:03:43.373Z,96681.59
2023-02-19T08:06:45.628Z,96684.81
2023-02-19T08:10:07.169Z,96681.72
2023-02-19T08:13:19.951Z,96675.59
2023-02-19T08:16:36.814Z,96685.84
2023-02-19T08:19:39.781Z,96682.91
2023-02-19T08:22:41.840Z,96677.31
2023-02-19T08:25:44.224Z,96682.38
2023-02-19T08:28:46.492Z,96691.22
2023-02-19T08:31:48.628Z,96684.88
2023-02-19T08:34:50.657Z,96693.88
2023-02-19T08:37:56.974Z,96696.13
2023-02-19T08:40:59.079Z,96709.31
2023-02-19T08:44:01.237Z,96716.72
2023-02-19T08:47:05.043Z,96703.69
2023-02-19T08:50:08.759Z,96709.00
2023-02-19T08:53:10.440Z,96720.50
2023-02-19T08:56:15.037Z,96725.56
2023-02-19T08:59:17.055Z,96718.53
2023-02-19T09:02:18.666Z,96726.09
2023-02-19T09:05:21.017Z,96726.81
2023-02-19T09:08:23.107Z,96735.50
2023-02-19T09:11:25.488Z,96744.50
2023-02-19T09:14:27.529Z,96738.56
2023-02-19T09:17:29.136Z,96735.91
2023-02-19T09:20:31.289Z,96733.38
2023-02-19T09:23:35.428Z,96745.72
2023-02-19T09:26:38.668Z,96742.34
2023-02-19T09:29:40.379Z,96746.88
2023-02-19T09:32:42.426Z,96749.81
2023-02-19T09:35:44.433Z,96752.22
2023-02-19T09:38:46.191Z,96764.16
2023-02-19T09:41:51.910Z,96761.78
2023-02-19T09:44:57.509Z,96770.66
2023-02-19T09:47:59.220Z,96773.47
2023-02-19T09:51:02.620Z,96770.94
2023-02-19T09:54:09.883Z,96766.06
2023-02-19T09:57:20.689Z,96777.16
2023-02-19T10:00:30.508Z,96783.19
2023-02-19T10:03:41.920Z,96795.13
2023-02-19T10:06:44.103Z,96796.94
2023-02-19T10:09:52.529Z,96802.84
2023-02-19T10:13:00.825Z,96799.91
2023-02-19T10:16:05.584Z,96809.59
2023-02-19T10:19:15.933Z,96803.53
2023-02-19T10:22:19.271Z,96806.78
2023-02-19T10:25:20.976Z,96803.81
2023-02-19T10:28:30.419Z,96782.22
2023-02-19T10:31:34.661Z,96795.69
2023-02-19T10:34:36.811Z,96797.66
2023-02-19T10:37:49.732Z,96811.16
2023-02-19T10:41:02.096Z,96797.94
2023-02-19T10:44:16.424Z,96794.72
2023-02-19T10:47:23.338Z,96776.16
2023-02-19T10:50:32.731Z,96803.25
2023-02-19T10:53:48.106Z,96786.41
2023-02-19T10:56:50.273Z,96801.31
2023-02-19T10:59:57.608Z,96794.13
2023-02-19T11:03:21.441Z,96792.59
2023-02-19T11:06:27.038Z,96793.88
2023-02-19T11:09:37.102Z,96778.81
2023-02-19T11:12:39.244Z,96774.63
2023-02-19T11:15:41.702Z,96769.44
2023-02-19T11:18:45.124Z,96767.47
2023-02-19T11:21:47.914Z,96772.50
2023-02-19T11:24:55.896Z,96774.34
2023-02-19T11:28:23.812Z,96763.78
2023-02-19T11:31:33.556Z,96781.75
2023-02-19T11:34:35.903Z,96769.34
2023-02-19T11:37:54.344Z,96777.66
2023-02-19T11:41:15.100Z,96775.94
2023-02-19T11:44:30.681Z,96787.06
2023-02-19T11:47:50.526Z,96816.88
2023-02-19T11:51:10.105Z,96795.97
2023-02-19T11:54:48.782Z,96794.03
2023-02-19T11:58:04.788Z,96785.84
2023-02-19T12:01:44.040Z,96797.94
2023-02-19T12:04:48.645Z,96787.13
2023-02-19T12:08:13.731Z,96779.09
2023-02-19T12:11:38.709Z,96767.59
2023-02-19T12:15:21.145Z,96774.34
2023-02-19T12:18:41.130Z,96768.72
2023-02-19T12:21:51.422Z,96796.81
2023-02-19T12:24:52.936Z,96790.06
2023-02-19T12:28:09.660Z,96799.50
2023-02-19T12:31:53.542Z,96801.59
2023-02-19T12:34:55.166Z,96815.78
2023-02-19T12:38:15.639Z,96799.47
2023-02-19T12:41:35.788Z,96803.69
2023-02-19T12:44:47.493Z,96805.81
2023-02-19T12:48:03.698Z,96795.84
2023-02-19T12:51:12.797Z,96817.75
2023-02-19T12:54:23.839Z,96806.38
2023-02-19T12:57:31.611Z,96801.03
2023-02-19T13:00:33.138Z,96805.78
2023-02-19T13:04:14.301Z,96805.09
2023-02-19T13:07:41.790Z,96803.94
2023-02-19T13:10:49.078Z,96817.72
2023-02-19T13:13:55.689Z,96806.72
2023-02-19T13:17:17.184Z,96814.16
2023-02-19T13:20:27.956Z,96807.56
2023-02-19T13:27:40.076Z,96783.06
2023-02-19T13:30:52.956Z,96777.28
2023-02-19T13:34:18.038Z,96762.25
2023-02-19T13:37:20.676Z,96774.75
2023-02-19T13:40:31.515Z,96782.78
2023-02-19T13:43:38.941Z,96788.00
2023-02-19T13:46:46.674Z,96777.03
2023-02-19T13:49:52.232Z,96776.72
2023-02-19T13:52:55.648Z,96769.84
2023-02-19T13:55:57.222Z,96774.47
2023-02-19T13:59:18.475Z,96776.97
2023-02-19T14:02:23.064Z,96793.69
2023-02-19T14:05:58.802Z,96791.16
2023-02-19T14:09:00.619Z,96787.97
2023-02-19T14:12:02.176Z,96811.28
2023-02-19T14:15:44.179Z,96806.06
2023-02-19T14:18:46.754Z,96810.03
2023-02-19T14:21:48.736Z,96802.44
2023-02-19T14:24:53.581Z,96799.53
2023-02-19T14:28:24.141Z,96804.75
2023-02-19T14:31:35.555Z,96806.84
2023-02-19T14:34:37.352Z,96781.97
2023-02-19T14:37:39.053Z,96776.63
2023-02-19T14:40:42.232Z,96772.41
2023-02-19T14:43:47.461Z,96795.59
2023-02-19T14:46:56.788Z,96795.19
2023-02-19T14:50:02.481Z,96804.47
2023-02-19T14:53:07.274Z,96806.28
2023-02-19T14:56:21.433Z,96806.16
2023-02-19T14:59:27.611Z,96810.38
2023-02-19T15:02:32.220Z,96823.16
2023-02-19T15:05:36.798Z,96827.81
2023-02-19T15:08:43.733Z,96832.47
2023-02-19T15:11:45.395Z,96823.75
2023-02-19T15:14:49.863Z,96839.19
2023-02-19T15:17:53.664Z,96843.13
2023-02-19T15:21:02.478Z,96846.31
2023-02-19T15:24:06.090Z,96851.38
2023-02-19T15:27:18.385Z,96849.13
2023-02-19T15:30:26.697Z,96844.47
2023-02-19T15:33:28.541Z,96850.94
2023-02-19T15:36:32.404Z,96855.03
2023-02-19T15:39:43.991Z,96860.97
2023-02-19T15:42:47.191Z,96848.59
2023-02-19T15:45:50.291Z,96843.13
2023-02-19T15:48:56.775Z,96844.38
2023-02-19T15:52:05.719Z,96848.63
2023-02-19T15:55:27.084Z,96850.31
2023-02-19T15:58:36.312Z,96835.56
2023-02-19T16:01:39.004Z,96838.25
2023-02-19T16:04:43.095Z,96831.22
2023-02-19T16:07:47.370Z,96841.22
2023-02-19T16:10:57.271Z,96847.25
2023-02-19T16:14:19.223Z,96844.00
2023-02-19T16:17:25.103Z,96856.09
2023-02-19T16:20:28.493Z,96857.19
2023-02-19T16:23:31.293Z,96869.03
2023-02-19T16:26:44.680Z,96878.44
2023-02-19T16:29:51.067Z,96874.06
2023-02-19T16:33:21.824Z,96865.47
2023-02-19T16:36:35.685Z,96873.19
2023-02-19T16:39:40.421Z,96874.31
2023-02-19T16:42:51.242Z,96877.13
2023-02-19T16:45:53.445Z,96905.78
2023-02-19T16:48:55.046Z,96904.22
2023-02-19T16:51:59.399Z,96919.53
2023-02-19T16:55:01.782Z,96920.34
2023-02-19T16:58:03.461Z,96933.13
2023-02-19T17:01:05.207Z,96936.91
2023-02-19T17:04:09.597Z,96937.19
2023-02-19T17:07:17.155Z,96943.06
2023-02-19T17:10:23.491Z,96941.94
2023-02-19T17:13:25.104Z,96955.25
2023-02-19T17:16:29.600Z,96946.72
2023-02-19T17:19:31.324Z,96946.00
2023-02-19T17:22:33.631Z,96956.22
2023-02-19T17:25:35.270Z,96974.03
2023-02-19T17:28:36.853Z,96972.47
2023-02-19T17:31:38.453Z,96970.53
2023-02-19T17:34:40.183Z,96972.47
2023-02-19T17:37:41.792Z,96983.28
2023-02-19T17:40:45.049Z,96985.09
2023-02-19T17:43:47.582Z,96982.56
2023-02-19T17:46:49.445Z,96984.53
2023-02-19T17:49:52.008Z,96996.16
2023-02-19T17:52:53.599Z,96999.94
2023-02-19T17:55:55.185Z,97005.53
2023-02-19T17:58:59.953Z,97001.19
2023-02-19T18:02:03.207Z,97002.44
2023-02-19T18:05:05.044Z,97008.88
2023-02-19T18:08:06.626Z,97024.84
2023-02-19T18:11:08.488Z,97019.09
2023-02-19T18:14:10.037Z,97023.56
2023-02-19T18:17:11.655Z,97031.69
2023-02-19T18:20:16.191Z,97046.09
2023-02-19T18:23:17.883Z,97039.25
2023-02-19T18:26:21.505Z,97037.91
2023-02-19T18:29:24.593Z,97040.72
2023-02-19T18:32:26.307Z,97048.56
2023-02-19T18:35:28.088Z,97050.78
2023-02-19T18:38:29.877Z,97057.81
2023-02-19T18:41:31.409Z,97059.63
2023-02-19T18:44:36.861Z,97051.75
2023-02-19T18:47:38.515Z,97060.88
2023-02-19T18:50:40.194Z,97059.41
2023-02-19T18:53:44.596Z,97060.38
2023-02-19T18:56:46.950Z,97065.59
2023-02-19T18:59:48.869Z,97070.47
2023-02-19T19:02:51.414Z,97066.22
2023-02-19T19:05:53.334Z,97060.91
2023-02-19T19:08:54.963Z,97058.47
2023-02-19T19:11:56.509Z,97063.81
2023-02-19T19:14:58.067Z,97064.81
2023-02-19T19:18:00.011Z,97063.34
2023-02-19T19:21:03.542Z,97076.56
2023-02-19T19:24:05.625Z,97082.00
2023-02-19T19:27:07.234Z,97090.09
2023-02-19T19:30:09.420Z,97083.22
2023-02-19T19:33:12.105Z,97083.22
2023-02-19T19:36:20.236Z,97076.19
2023-02-19T19:39:21.860Z,97079.81
2023-02-19T19:42:24.341Z,97069.56
2023-02-19T19:45:25.974Z,97064.75
2023-02-19T19:48:27.784Z,97073.53
2023-02-19T19:51:33.877Z,97077.78
2023-02-19T19:54:35.600Z,97073.09
2023-02-19T19:57:38.534Z,97083.50
2023-02-19T20:00:43.360Z,97083.50
2023-02-19T20:03:44.895Z,97091.50
2023-02-19T20:06:46.866Z,97087.97
2023-02-19T20:09:50.761Z,97088.94
2023-02-19T20:12:52.597Z,97090.88
2023-02-19T20:15:54.265Z,97093.41
2023-02-19T20:18:55.944Z,97092.44
2023-02-19T20:21:57.628Z,97083.75
2023-02-19T20:24:59.361Z,97081.34
2023-02-19T20:28:01.419Z,97094.66
2023-02-19T20:31:03.254Z,97092.00
2023-02-19T20:34:05.455Z,97099.13
2023-02-19T20:37:07.586Z,97107.25
2023-02-19T20:40:11.841Z,97093.59
2023-02-19T20:43:13.506Z,97108.44
2023-02-19T20:46:15.715Z,97098.06
2023-02-19T20:49:19.592Z,97100.44
2023-02-19T20:52:21.807Z,97091.88
2023-02-19T20:55:24.933Z,97098.19
2023-02-19T20:58:26.950Z,97093.59
2023-02-19T21:01:29.065Z,97109.56
2023-02-19T21:04:30.798Z,97100.97
2023-02-19T21:07:32.407Z,97098.19
2023-02-19T21:10:34.805Z,97105.19
2023-02-19T21:13:36.692Z,97113.19
2023-02-19T21:16:38.317Z,97115.97
2023-02-19T21:19:40.164Z,97105.31
2023-02-19T21:22:42.207Z,97108.09
2023-02-19T21:25:43.875Z,97106.28
2023-02-19T21:28:50.668Z,97098.28
2023-02-19T21:31:55.917Z,97106.41
2023-02-19T21:34:57.671Z,97102.78
2023-02-19T21:37:59.326Z,97101.56
2023-02-19T21:41:00.908Z,97109.31
2023-02-19T21:44:03.667Z,97103.88
2023-02-19T21:47:05.328Z,97102.41
2023-02-19T21:50:07.474Z,97105.94
2023-02-19T21:53:09.054Z,97101.09
2023-02-19T21:56:10.896Z,97103.66
2023-02-19T21:59:13.043Z,97108.25
2023-02-19T22:02:15.163Z,97116.22
2023-02-19T22:05:16.838Z,97124.94
2023-02-19T22:08:18.699Z,97119.84
2023-02-19T22:11:20.651Z,97106.53
2023-02-19T22:14:22.256Z,97117.06
2023-02-19T22:17:23.961Z,97121.56
2023-02-19T22:20:25.527Z,97122.28
2023-02-19T22:23:27.123Z,97116.97
2023-02-19T22:26:30.500Z,97111.75
2023-02-19T22:29:32.133Z,97105.69
2023-02-19T22:32:33.827Z,97103.19
2023-02-19T22:35:35.563Z,97107.41
2023-02-19T22:38:37.165Z,97099.69
2023-02-19T22:41:42.385Z,97110.06
2023-02-19T22:44:44.048Z,97105.13
2023-02-19T22:47:46.987Z,97110.06
2023-02-19T22:50:48.868Z,97119.00
2023-02-19T22:53:53.425Z,97123.38
2023-02-19T22:56:56.135Z,97124.47
2023-02-19T22:59:57.667Z,97133.28
2023-02-19T23:02:59.561Z,97132.47
2023-02-19T23:06:04.778Z,97144.19
2023-02-19T23:09:10.946Z,97150.94
2023-02-19T23:12:12.783Z,97151.91
2023-02-19T23:15:14.436Z,97162.56
2023-02-19T23:18:16.013Z,97149.41
2023-02-19T23:21:19.204Z,97155.69
2023-02-19T23:24:20.803Z,97151.22
2023-02-19T23:27:24.212Z,97152.91
2023-02-19T23:30:26.186Z,97154.72
2023-02-19T23:33:27.979Z,97151.22
2023-02-19T23:36:29.533Z,97154.84
2023-02-19T23:39:31.292Z,97151.44
2023-02-19T23:42:32.948Z,97148.78
2023-02-19T23:45:34.829Z,97143.22
2023-02-19T23:48:36.425Z,97143.34
2023-02-19T23:51:38.069Z,97153.97
2023-02-19T23:54:39.656Z,97151.56
2023-02-19T23:57:41.693Z,97163.91
